首页
METAR-TAF:

METAR-TAF

机场 :

圣凯瑟琳修道院, 埃及

纬度: 28-41-07N, 经度: 034-03-45E, 海拔: 1331米

METAR: 丢失

时间: 03:50 (01:50 UTC)

预报

该预报发布于2小时和50分钟前的23:00 UTC
预报有效从17日的 00点(UTC)到 18日的 06点(UTC)
风速6节,风向西转西北
能见度10公里或以上
1500米以下无云,无积雨云

TAF: HESC 162300Z 1700/1806 29006KT CAVOK

超过4000个机场的气象观测和天气预报(METAR&TAF报告)。

可查询的气象台以黄色和红色小点在地图上表示。

将鼠标移到小点上方,可查看气象台名称。

然后点击查看天气观测和预报。

如需切换地图:点击带黑十字的绿色按钮放大地图;点击带横线的绿色按钮缩小地图;或者点击绿色箭头查看邻近地区的地图。


METAR-TAF: